createdAt,value
2022-11-16T00:06:45.351Z,89.41
2022-11-16T00:18:45.829Z,88.74
2022-11-16T00:30:46.267Z,88.96
2022-11-16T00:42:46.711Z,88.27
2022-11-16T00:54:47.189Z,88.01
2022-11-16T01:06:47.647Z,87.82
2022-11-16T01:18:48.503Z,87.68
2022-11-16T01:30:48.535Z,87.67
2022-11-16T01:42:49.007Z,87.96
2022-11-16T01:54:49.453Z,88.25
2022-11-16T02:06:49.971Z,88.21
2022-11-16T02:18:50.330Z,88.06
2022-11-16T02:30:50.893Z,88.07
2022-11-16T02:42:51.251Z,88.04
2022-11-16T02:54:51.698Z,88.46
2022-11-16T03:06:52.189Z,88.40
2022-11-16T03:18:52.629Z,88.96
2022-11-16T03:30:53.051Z,88.96
2022-11-16T03:42:53.503Z,89.09
2022-11-16T03:54:53.968Z,89.27
2022-11-16T04:06:54.481Z,89.66
2022-11-16T04:18:54.842Z,88.88
2022-11-16T04:30:55.307Z,88.84
2022-11-16T04:42:55.782Z,89.74
2022-11-16T04:54:56.267Z,89.79
2022-11-16T05:06:56.839Z,89.45
2022-11-16T05:18:57.137Z,90.02
2022-11-16T05:30:57.593Z,90.28
2022-11-16T05:42:58.043Z,91.42
2022-11-16T05:54:58.493Z,91.09
2022-11-16T06:06:59.275Z,91.49
2022-11-16T06:18:59.421Z,91.36
2022-11-16T06:30:59.885Z,90.41
2022-11-16T06:43:00.270Z,90.92
2022-11-16T06:55:00.764Z,90.81
2022-11-16T07:07:01.232Z,90.59
2022-11-16T07:19:01.665Z,90.34
2022-11-16T07:31:02.100Z,89.42
2022-11-16T07:43:02.538Z,89.87
2022-11-16T07:55:02.990Z,88.35
2022-11-16T08:07:03.498Z,88.44
2022-11-16T08:19:03.881Z,87.99
2022-11-16T08:31:04.341Z,87.39
2022-11-16T08:43:04.795Z,86.72
2022-11-16T08:55:05.276Z,84.12
2022-11-16T09:07:05.731Z,84.21
2022-11-16T09:19:06.183Z,83.16
2022-11-16T09:31:06.638Z,82.19
2022-11-16T09:43:07.055Z,83.35
2022-11-16T09:55:10.793Z,83.39
2022-11-16T10:07:08.077Z,83.58
2022-11-16T10:19:08.419Z,82.82
2022-11-16T10:31:08.910Z,82.39
2022-11-16T10:43:09.348Z,83.47
2022-11-16T10:55:09.797Z,81.98
2022-11-16T11:07:10.294Z,82.26
2022-11-16T11:19:10.725Z,82.52
2022-11-16T11:31:11.118Z,81.57
2022-11-16T11:43:14.946Z,82.13
2022-11-16T11:55:12.090Z,83.83
2022-11-16T12:07:12.522Z,82.98
2022-11-16T12:19:12.986Z,82.64
2022-11-16T12:31:13.418Z,82.73
2022-11-16T12:43:13.841Z,81.64
2022-11-16T12:55:27.119Z,80.16
2022-11-16T13:07:14.881Z,82.19
2022-11-16T13:19:15.243Z,81.06
2022-11-16T13:31:15.693Z,81.62
2022-11-16T13:43:16.121Z,81.34
2022-11-16T13:55:16.585Z,80.37
2022-11-16T14:07:17.100Z,79.71
2022-11-16T14:19:17.494Z,79.63
2022-11-16T14:31:17.939Z,80.53
2022-11-16T14:43:18.404Z,81.11
2022-11-16T14:55:18.852Z,81.43
2022-11-16T15:07:19.491Z,84.96
2022-11-16T15:31:20.208Z,87.74
2022-11-16T15:43:20.763Z,90.13
2022-11-16T15:55:21.191Z,91.31
2022-11-16T16:07:21.591Z,90.83
2022-11-16T16:19:22.026Z,91.30
2022-11-16T16:31:22.439Z,91.29
2022-11-16T16:43:22.889Z,91.07
2022-11-16T16:55:23.401Z,91.85
2022-11-16T17:07:23.964Z,93.29
2022-11-16T17:19:24.268Z,91.59
2022-11-16T17:31:24.778Z,93.75
2022-11-16T17:43:25.176Z,94.31
2022-11-16T17:55:25.635Z,93.94
2022-11-16T18:07:26.122Z,94.01
2022-11-16T18:19:26.552Z,94.37
2022-11-16T18:31:27.015Z,92.68
2022-11-16T18:43:27.443Z,93.52
2022-11-16T18:55:27.900Z,93.09
2022-11-16T19:07:28.403Z,92.65
2022-11-16T19:19:28.807Z,92.53
2022-11-16T19:31:29.298Z,92.82
2022-11-16T19:43:29.723Z,92.03
2022-11-16T19:55:30.143Z,93.54
2022-11-16T20:07:30.681Z,93.44
2022-11-16T20:19:31.066Z,94.79
2022-11-16T20:31:31.490Z,94.44
2022-11-16T20:43:32.388Z,92.95
2022-11-16T20:55:32.473Z,94.72
2022-11-16T21:07:32.973Z,95.10
2022-11-16T21:19:33.312Z,96.14
2022-11-16T21:31:33.772Z,95.68
2022-11-16T21:43:34.458Z,95.64
2022-11-16T21:55:34.682Z,95.03
2022-11-16T22:07:35.194Z,94.19
2022-11-16T22:19:35.559Z,94.67
2022-11-16T22:31:36.038Z,94.38
2022-11-16T22:43:36.746Z,94.01
2022-11-16T22:55:36.920Z,94.63
2022-11-16T23:07:37.485Z,93.19
2022-11-16T23:19:37.881Z,93.13
2022-11-16T23:31:38.321Z,94.05
2022-11-16T23:43:38.739Z,93.92
2022-11-16T23:55:39.214Z,94.43
